LZB971 LBSF-LBWN

Flight info

Callsign LZB971
Flight time 0h 47m
Altitude 27000
Route UMPIT DICXA
Aircraft A320/M-SDE3FGHIRWY/LB1

Departure

Time 2026-04-28 13:28
Airport Sofia Airport (LBSF)

Arrival

Time 2026-04-28 14:15
Airport Varna Airport (LBWN)
Time Latitude Longitude Altitude Speed Heading
2026-04-28 13:21 42.69595 23.40673 1749 ft 15 kts 65°
2026-04-28 13:21 42.69656 23.40863 1746 ft 29 kts 71°
2026-04-28 13:21 42.69679 23.41192 1750 ft 46 kts 94°
2026-04-28 13:22 42.69633 23.41980 1751 ft 133 kts 96°
2026-04-28 13:22 42.69547 23.43387 1748 ft 94 kts 94°
2026-04-28 13:22 42.69515 23.43896 1768 ft 25 kts 109°
2026-04-28 13:22 42.69441 23.43946 1767 ft 13 kts 174°
2026-04-28 13:23 42.69324 23.43874 1764 ft 11 kts 266°
2026-04-28 13:23 42.69338 23.43758 1747 ft 14 kts 274°
2026-04-28 13:23 42.69348 23.43588 1746 ft 21 kts 274°
2026-04-28 13:23 42.69361 23.43377 1752 ft 23 kts 275°
2026-04-28 13:24 42.69374 23.43150 1752 ft 25 kts 275°
2026-04-28 13:24 42.69388 23.42928 1752 ft 23 kts 274°
2026-04-28 13:24 42.69399 23.42744 1752 ft 19 kts 276°
2026-04-28 13:24 42.69412 23.42549 1748 ft 21 kts 275°
2026-04-28 13:25 42.69421 23.42387 1752 ft 16 kts 274°
2026-04-28 13:25 42.69430 23.42216 1751 ft 20 kts 274°
2026-04-28 13:25 42.69443 23.42009 1751 ft 23 kts 275°
2026-04-28 13:25 42.69456 23.41783 1750 ft 25 kts 275°
2026-04-28 13:26 42.69470 23.41544 1750 ft 20 kts 275°
2026-04-28 13:26 42.69554 23.41496 1744 ft 15 kts 51°
2026-04-28 13:26 42.69602 23.41621 1744 ft 16 kts 66°
2026-04-28 13:26 42.69636 23.41892 1746 ft 45 kts 90°
2026-04-28 13:27 42.69584 23.42790 1749 ft 150 kts 95°
2026-04-28 13:27 42.69478 23.44579 2082 ft 215 kts 91°
2026-04-28 13:27 42.69339 23.46849 2316 ft 273 kts 94°
2026-04-28 13:27 42.69110 23.49747 2326 ft 329 kts 92°
2026-04-28 13:28 42.69071 23.52927 3649 ft 344 kts 85°
2026-04-28 13:28 42.69178 23.56259 4710 ft 369 kts 86°
2026-04-28 13:28 42.69331 23.59819 5857 ft 380 kts 82°
2026-04-28 13:28 42.69556 23.63172 6707 ft 327 kts 84°
2026-04-28 13:29 42.69745 23.66016 7407 ft 282 kts 82°
2026-04-28 13:29 42.69964 23.68642 8217 ft 279 kts 77°
2026-04-28 13:29 42.70345 23.71232 9574 ft 281 kts 76°
2026-04-28 13:29 42.70772 23.73881 10500 ft 290 kts 75°
2026-04-28 13:30 42.71217 23.76565 10855 ft 292 kts 75°
2026-04-28 13:30 42.71669 23.79278 11742 ft 294 kts 75°
2026-04-28 13:30 42.72123 23.81999 12984 ft 294 kts 75°
2026-04-28 13:30 42.72578 23.84754 14006 ft 302 kts 75°
2026-04-28 13:31 42.73498 23.90407 16026 ft 312 kts 75°
2026-04-28 13:31 42.73966 23.93308 17040 ft 317 kts 74°
2026-04-28 13:31 42.74441 23.96255 18069 ft 321 kts 74°
2026-04-28 13:32 42.74925 23.99263 18991 ft 327 kts 74°
2026-04-28 13:32 42.75414 24.02301 19847 ft 332 kts 73°
2026-04-28 13:32 42.75916 24.05411 20697 ft 338 kts 73°
2026-04-28 13:32 42.76419 24.08553 21567 ft 343 kts 73°
2026-04-28 13:33 42.76929 24.11757 22424 ft 348 kts 73°
2026-04-28 13:33 42.77447 24.15009 23271 ft 354 kts 73°
2026-04-28 13:33 42.77974 24.18311 24042 ft 359 kts 73°
2026-04-28 13:33 42.78508 24.21651 24756 ft 363 kts 73°
2026-04-28 13:34 42.79045 24.25030 25485 ft 367 kts 73°
2026-04-28 13:34 42.79593 24.28487 25929 ft 382 kts 73°
2026-04-28 13:34 42.80172 24.32122 26055 ft 404 kts 73°
2026-04-28 13:34 42.80785 24.35969 26080 ft 427 kts 74°
2026-04-28 13:35 42.81419 24.39974 26084 ft 447 kts 74°
2026-04-28 13:35 42.82082 24.44197 26085 ft 464 kts 74°
2026-04-28 13:35 42.82766 24.48582 26084 ft 479 kts 75°
2026-04-28 13:35 42.83465 24.53087 26082 ft 491 kts 75°
2026-04-28 13:36 42.84172 24.57682 26085 ft 499 kts 75°
2026-04-28 13:36 42.84888 24.62328 26083 ft 504 kts 75°
2026-04-28 13:36 42.85612 24.67022 26082 ft 508 kts 75°
2026-04-28 13:36 42.86340 24.71757 26085 ft 510 kts 75°
2026-04-28 13:37 42.87066 24.76499 26085 ft 512 kts 75°
2026-04-28 13:37 42.87790 24.81252 26085 ft 513 kts 75°
2026-04-28 13:37 42.88518 24.86032 26084 ft 513 kts 75°
2026-04-28 13:37 42.89233 24.90736 26088 ft 513 kts 75°
2026-04-28 13:38 42.89959 24.95506 26084 ft 514 kts 75°
2026-04-28 13:38 42.90686 25.00294 26084 ft 514 kts 75°
2026-04-28 13:38 42.91414 25.05097 26084 ft 514 kts 76°
2026-04-28 13:38 42.92136 25.09877 26085 ft 514 kts 76°
2026-04-28 13:39 42.92849 25.14610 26102 ft 514 kts 75°
2026-04-28 13:39 42.93568 25.19393 26084 ft 515 kts 76°
2026-04-28 13:39 42.94292 25.24249 26088 ft 515 kts 76°
2026-04-28 13:39 42.95003 25.29047 26086 ft 515 kts 76°
2026-04-28 13:40 42.95703 25.33778 26085 ft 515 kts 76°
2026-04-28 13:40 42.96413 25.38577 26087 ft 515 kts 76°
2026-04-28 13:40 42.97121 25.43369 26088 ft 515 kts 76°
2026-04-28 13:40 42.97825 25.48159 26085 ft 515 kts 76°
2026-04-28 13:41 42.98527 25.52961 26087 ft 515 kts 76°
2026-04-28 13:41 42.99225 25.57746 26083 ft 515 kts 76°
2026-04-28 13:41 42.99935 25.62623 26086 ft 515 kts 76°
2026-04-28 13:41 43.00622 25.67354 26093 ft 515 kts 76°
2026-04-28 13:42 43.01093 25.70608 26080 ft 515 kts 76°
2026-04-28 13:42 43.02007 25.76981 26086 ft 515 kts 76°
2026-04-28 13:42 43.02689 25.81779 26088 ft 515 kts 76°
2026-04-28 13:42 43.03157 25.85042 26077 ft 515 kts 76°
2026-04-28 13:43 43.03840 25.89792 26085 ft 516 kts 76°
2026-04-28 13:43 43.04532 25.94604 26088 ft 516 kts 76°
2026-04-28 13:43 43.05219 25.99422 26088 ft 516 kts 76°
2026-04-28 13:43 43.05905 26.04250 26091 ft 516 kts 76°
2026-04-28 13:44 43.06584 26.09061 26075 ft 516 kts 76°
2026-04-28 13:44 43.07265 26.13896 26075 ft 516 kts 76°
2026-04-28 13:44 43.07943 26.18730 26089 ft 516 kts 76°
2026-04-28 13:44 43.08610 26.23494 26085 ft 516 kts 76°
2026-04-28 13:45 43.09285 26.28336 26080 ft 517 kts 76°
2026-04-28 13:45 43.09956 26.33163 26075 ft 517 kts 77°
2026-04-28 13:45 43.10627 26.38008 26062 ft 517 kts 77°
2026-04-28 13:45 43.11295 26.42849 25932 ft 519 kts 77°
2026-04-28 13:46 43.11955 26.47664 25410 ft 510 kts 77°
2026-04-28 13:46 43.12605 26.52408 24709 ft 506 kts 77°
2026-04-28 13:46 43.13250 26.57136 24031 ft 504 kts 77°
2026-04-28 13:46 43.13885 26.61815 23315 ft 502 kts 77°
2026-04-28 13:47 43.14525 26.66543 22511 ft 501 kts 77°
2026-04-28 13:47 43.15160 26.71226 21756 ft 500 kts 77°
2026-04-28 13:47 43.15792 26.75898 21184 ft 495 kts 77°
2026-04-28 13:47 43.16415 26.80512 20862 ft 498 kts 77°
2026-04-28 13:48 43.17038 26.85142 20700 ft 489 kts 77°
2026-04-28 13:48 43.17651 26.89713 20193 ft 486 kts 77°
2026-04-28 13:48 43.18258 26.94250 19736 ft 482 kts 78°
2026-04-28 13:48 43.18859 26.98752 19293 ft 479 kts 78°
2026-04-28 13:49 43.19454 27.03240 18880 ft 477 kts 78°
2026-04-28 13:49 43.20080 27.07638 18492 ft 473 kts 73°
2026-04-28 13:49 43.21378 27.11708 18128 ft 464 kts 54°
2026-04-28 13:49 43.23502 27.14974 17795 ft 454 kts 38°
2026-04-28 13:50 43.25885 27.17798 17388 ft 454 kts 41°
2026-04-28 13:50 43.27746 27.21321 17069 ft 460 kts 62°
2026-04-28 13:50 43.28616 27.25545 16777 ft 463 kts 81°
2026-04-28 13:50 43.28706 27.29956 16501 ft 463 kts 93°
2026-04-28 13:51 43.28177 27.34296 16234 ft 462 kts 108°
2026-04-28 13:51 43.26843 27.38299 15981 ft 459 kts 116°
2026-04-28 13:51 43.25803 27.42410 15709 ft 457 kts 98°
2026-04-28 13:51 43.25855 27.46767 15448 ft 453 kts 77°
2026-04-28 13:52 43.26847 27.50748 15197 ft 447 kts 60°
2026-04-28 13:52 43.28689 27.54231 14941 ft 441 kts 42°
2026-04-28 13:52 43.31115 27.56702 14690 ft 433 kts 25°
2026-04-28 13:52 43.33936 27.58035 14449 ft 426 kts
2026-04-28 13:53 43.36867 27.58132 14255 ft 419 kts 352°
2026-04-28 13:53 43.39651 27.57347 14170 ft 411 kts 338°
2026-04-28 13:53 43.42120 27.55425 14064 ft 406 kts 320°
2026-04-28 13:53 43.43985 27.52547 13941 ft 404 kts 302°
2026-04-28 13:54 43.45078 27.48995 13810 ft 404 kts 284°
2026-04-28 13:54 43.45346 27.45150 13696 ft 405 kts 268°
2026-04-28 13:54 43.44771 27.41361 13596 ft 408 kts 251°
2026-04-28 13:54 43.43384 27.37941 13512 ft 413 kts 234°
2026-04-28 13:55 43.41286 27.35226 13417 ft 419 kts 217°
2026-04-28 13:55 43.38631 27.33504 13321 ft 426 kts 199°
2026-04-28 13:55 43.35678 27.33001 13237 ft 432 kts 180°
2026-04-28 13:55 43.32714 27.33802 13144 ft 436 kts 163°
2026-04-28 13:56 43.29858 27.35056 13044 ft 435 kts 166°
2026-04-28 13:56 43.26926 27.35985 12963 ft 431 kts 176°
2026-04-28 13:56 43.23956 27.35798 12903 ft 425 kts 194°
2026-04-28 13:56 43.21223 27.34395 12838 ft 418 kts 212°
2026-04-28 13:57 43.18977 27.31919 12778 ft 411 kts 231°
2026-04-28 13:57 43.17454 27.28660 12699 ft 406 kts 249°
2026-04-28 13:57 43.16788 27.24938 12641 ft 401 kts 268°
2026-04-28 13:57 43.16893 27.21130 12557 ft 399 kts 276°
2026-04-28 13:58 43.17128 27.17381 12429 ft 400 kts 276°
2026-04-28 13:58 43.17372 27.13584 12426 ft 398 kts 276°
2026-04-28 13:58 43.17615 27.09814 12409 ft 397 kts 276°
2026-04-28 13:58 43.17859 27.06056 12366 ft 396 kts 276°
2026-04-28 13:59 43.18102 27.02289 12336 ft 396 kts 276°
2026-04-28 13:59 43.18345 26.98527 12311 ft 396 kts 276°
2026-04-28 13:59 43.18590 26.94762 12265 ft 396 kts 277°
2026-04-28 13:59 43.19148 26.91134 12213 ft 393 kts 291°
2026-04-28 14:00 43.20475 26.87881 12200 ft 393 kts 308°
2026-04-28 14:00 43.22425 26.85332 12060 ft 375 kts 323°
2026-04-28 14:00 43.24627 26.83795 11560 ft 338 kts 339°
2026-04-28 14:00 43.26841 26.83195 11067 ft 313 kts 353°
2026-04-28 14:01 43.28947 26.83332 10582 ft 295 kts
2026-04-28 14:01 43.30874 26.84073 10110 ft 282 kts 18°
2026-04-28 14:01 43.32598 26.85348 9644 ft 288 kts 32°
2026-04-28 14:01 43.34162 26.87233 9444 ft 300 kts 45°
2026-04-28 14:02 43.35362 26.89556 9234 ft 304 kts 59°
2026-04-28 14:02 43.36150 26.92301 9021 ft 306 kts 73°
2026-04-28 14:02 43.36437 26.95212 8811 ft 308 kts 88°
2026-04-28 14:02 43.36219 26.98135 8613 ft 310 kts 102°
2026-04-28 14:03 43.35664 27.00967 8415 ft 310 kts 104°
2026-04-28 14:03 43.35091 27.03815 8204 ft 308 kts 104°
2026-04-28 14:03 43.34524 27.06646 8007 ft 306 kts 104°
2026-04-28 14:03 43.33943 27.09401 7799 ft 297 kts 106°
2026-04-28 14:04 43.33366 27.12076 7599 ft 277 kts 104°
2026-04-28 14:04 43.32874 27.14571 7378 ft 265 kts 104°
2026-04-28 14:04 43.32329 27.16972 7051 ft 261 kts 109°
2026-04-28 14:04 43.31728 27.19235 6893 ft 250 kts 110°
2026-04-28 14:05 43.31070 27.21436 6534 ft 250 kts 113°
2026-04-28 14:05 43.30392 27.23611 6265 ft 246 kts 110°
2026-04-28 14:05 43.29893 27.25763 6109 ft 238 kts 107°
2026-04-28 14:05 43.29382 27.27894 5972 ft 230 kts 109°
2026-04-28 14:06 43.28856 27.29973 5735 ft 228 kts 110°
2026-04-28 14:06 43.28420 27.32025 5568 ft 221 kts 101°
2026-04-28 14:06 43.28147 27.34060 5454 ft 213 kts 98°
2026-04-28 14:06 43.27838 27.36041 5161 ft 215 kts 102°
2026-04-28 14:07 43.27473 27.38067 4784 ft 220 kts 105°
2026-04-28 14:07 43.27092 27.40101 4475 ft 221 kts 105°
2026-04-28 14:07 43.26658 27.42112 4258 ft 216 kts 105°
2026-04-28 14:07 43.26301 27.44089 4086 ft 210 kts 101°
2026-04-28 14:08 43.26004 27.46029 3873 ft 206 kts 102°
2026-04-28 14:08 43.25691 27.48014 3223 ft 222 kts 102°
2026-04-28 14:08 43.25420 27.50127 2655 ft 226 kts 98°
2026-04-28 14:08 43.25200 27.52236 2142 ft 225 kts 99°
2026-04-28 14:09 43.25065 27.54305 1927 ft 209 kts 94°
2026-04-28 14:09 43.25010 27.56219 1872 ft 202 kts 100°
2026-04-28 14:09 43.24783 27.58185 2008 ft 214 kts 105°
2026-04-28 14:09 43.24537 27.60239 2237 ft 223 kts 98°
2026-04-28 14:10 43.24442 27.62435 2371 ft 239 kts 94°
2026-04-28 14:10 43.24481 27.64773 2362 ft 245 kts 88°
2026-04-28 14:10 43.24443 27.67041 2206 ft 243 kts 97°
2026-04-28 14:10 43.24316 27.69312 2099 ft 237 kts 96°
2026-04-28 14:11 43.24177 27.71602 1755 ft 245 kts 96°
2026-04-28 14:11 43.23953 27.73956 1368 ft 251 kts 101°
2026-04-28 14:11 43.23727 27.76385 983 ft 259 kts 98°
2026-04-28 14:11 43.23520 27.78805 913 ft 253 kts 99°
2026-04-28 14:12 43.23304 27.81087 1318 ft 228 kts 101°
2026-04-28 14:12 43.22723 27.82929 1283 ft 200 kts 137°
2026-04-28 14:12 43.21455 27.83554 928 ft 205 kts 193°
2026-04-28 14:12 43.20327 27.82329 761 ft 224 kts 253°
2026-04-28 14:13 43.20406 27.80250 875 ft 221 kts 286°
2026-04-28 14:13 43.21091 27.78404 934 ft 219 kts 317°
2026-04-28 14:13 43.22135 27.76801 724 ft 229 kts 322°
2026-04-28 14:13 43.23446 27.76780 515 ft 202 kts 67°
2026-04-28 14:14 43.23547 27.78525 466 ft 183 kts 104°
2026-04-28 14:14 43.23424 27.80159 489 ft 161 kts 99°
2026-04-28 14:14 43.23277 27.81642 245 ft 147 kts 98°
2026-04-28 14:14 43.23164 27.82869 223 ft 92 kts 97°
2026-04-28 14:15 43.23141 27.83297 225 ft 8 kts 43°
2026-04-28 14:15 43.23187 27.83292 222 ft 9 kts
2026-04-28 14:15 43.23281 27.83305 222 ft 17 kts
2026-04-28 14:15 43.23370 27.83247 222 ft 18 kts 301°
2026-04-28 14:16 43.23448 27.83086 222 ft 20 kts 324°
2026-04-28 14:16 43.23494 27.83044 222 ft 0 kts 326°